sensor_id;sensor_type;location;lat;lon;timestamp;pressure;altitude;pressure_sealevel;temperature;humidity
49947;BME280;35839;48.662;13.300;2022-12-07T06:05:33;97207.53;;;1.16;100.00
49947;BME280;35839;48.662;13.300;2022-12-07T06:07:59;97208.75;;;1.11;100.00
49947;BME280;35839;48.662;13.300;2022-12-07T06:10:24;97215.50;;;0.99;100.00
49947;BME280;35839;48.662;13.300;2022-12-07T06:12:49;97222.28;;;1.00;100.00
49947;BME280;35839;48.662;13.300;2022-12-07T06:15:15;97216.59;;;0.95;100.00
49947;BME280;35839;48.662;13.300;2022-12-07T06:17:40;97232.59;;;1.00;100.00
49947;BME280;35839;48.662;13.300;2022-12-07T06:20:06;97228.56;;;0.96;100.00
49947;BME280;35839;48.662;13.300;2022-12-07T06:22:31;97239.78;;;1.09;100.00
49947;BME280;35839;48.662;13.300;2022-12-07T06:24:57;97240.97;;;1.18;100.00
49947;BME280;35839;48.662;13.300;2022-12-07T06:27:22;97242.19;;;1.12;100.00
49947;BME280;35839;48.662;13.300;2022-12-07T06:29:47;97240.88;;;1.19;100.00
49947;BME280;35839;48.662;13.300;2022-12-07T06:32:13;97244.91;;;1.23;100.00
49947;BME280;35839;48.662;13.300;2022-12-07T06:34:38;97247.69;;;1.20;100.00
49947;BME280;35839;48.662;13.300;2022-12-07T06:37:04;97252.88;;;1.06;100.00
49947;BME280;35839;48.662;13.300;2022-12-07T06:39:29;97244.94;;;1.09;100.00
49947;BME280;35839;48.662;13.300;2022-12-07T06:41:55;97249.28;;;0.94;100.00
49947;BME280;35839;48.662;13.300;2022-12-07T06:44:21;97252.31;;;1.01;100.00
49947;BME280;35839;48.662;13.300;2022-12-07T06:46:47;97251.03;;;1.08;100.00
49947;BME280;35839;48.662;13.300;2022-12-07T06:49:12;97254.78;;;1.17;100.00
49947;BME280;35839;48.662;13.300;2022-12-07T06:51:38;97252.63;;;1.23;100.00
49947;BME280;35839;48.662;13.300;2022-12-07T06:54:10;97244.16;;;1.36;100.00
49947;BME280;35839;48.662;13.300;2022-12-07T06:56:36;97248.19;;;1.40;100.00
49947;BME280;35839;48.662;13.300;2022-12-07T06:59:02;97249.94;;;1.39;100.00
49947;BME280;35839;48.662;13.300;2022-12-07T07:01:28;97253.94;;;1.16;100.00
49947;BME280;35839;48.662;13.300;2022-12-07T07:03:53;97258.19;;;1.17;100.00
49947;BME280;35839;48.662;13.300;2022-12-07T07:06:19;97259.47;;;1.24;100.00
49947;BME280;35839;48.662;13.300;2022-12-07T07:08:44;97252.56;;;1.25;100.00
49947;BME280;35839;48.662;13.300;2022-12-07T07:11:10;97259.28;;;1.27;100.00
49947;BME280;35839;48.662;13.300;2022-12-07T07:13:36;97259.19;;;1.29;100.00
49947;BME280;35839;48.662;13.300;2022-12-07T07:16:01;97268.69;;;1.29;100.00
49947;BME280;35839;48.662;13.300;2022-12-07T07:18:27;97278.34;;;1.25;100.00
49947;BME280;35839;48.662;13.300;2022-12-07T07:20:53;97275.78;;;1.11;100.00
49947;BME280;35839;48.662;13.300;2022-12-07T07:23:20;97277.91;;;1.18;100.00
49947;BME280;35839;48.662;13.300;2022-12-07T07:25:45;97285.66;;;1.04;100.00
49947;BME280;35839;48.662;13.300;2022-12-07T07:28:11;97282.16;;;1.19;100.00
49947;BME280;35839;48.662;13.300;2022-12-07T07:30:36;97270.28;;;1.17;100.00
49947;BME280;35839;48.662;13.300;2022-12-07T07:33:03;97276.88;;;1.21;100.00
49947;BME280;35839;48.662;13.300;2022-12-07T07:35:30;97282.31;;;1.31;100.00
49947;BME280;35839;48.662;13.300;2022-12-07T07:37:55;97283.41;;;1.26;100.00
49947;BME280;35839;48.662;13.300;2022-12-07T07:40:21;97282.66;;;1.39;100.00
49947;BME280;35839;48.662;13.300;2022-12-07T07:42:47;97277.16;;;1.31;100.00
49947;BME280;35839;48.662;13.300;2022-12-07T07:45:13;97279.28;;;1.51;100.00
49947;BME280;35839;48.662;13.300;2022-12-07T07:47:39;97299.78;;;1.54;100.00
49947;BME280;35839;48.662;13.300;2022-12-07T07:50:05;97301.91;;;1.47;100.00
49947;BME280;35839;48.662;13.300;2022-12-07T07:52:30;97298.88;;;1.41;100.00
49947;BME280;35839;48.662;13.300;2022-12-07T07:54:56;97304.03;;;1.41;100.00
49947;BME280;35839;48.662;13.300;2022-12-07T07:57:21;97297.78;;;1.31;100.00
49947;BME280;35839;48.662;13.300;2022-12-07T07:59:46;97304.22;;;1.23;100.00
49947;BME280;35839;48.662;13.300;2022-12-07T08:02:14;97303.84;;;1.30;100.00
49947;BME280;35839;48.662;13.300;2022-12-07T08:04:40;97313.44;;;1.27;100.00
49947;BME280;35839;48.662;13.300;2022-12-07T08:07:05;97311.13;;;1.37;100.00
49947;BME280;35839;48.662;13.300;2022-12-07T08:09:31;97309.78;;;1.17;100.00
49947;BME280;35839;48.662;13.300;2022-12-07T08:11:57;97309.03;;;1.30;100.00
49947;BME280;35839;48.662;13.300;2022-12-07T08:14:22;97305.06;;;1.38;100.00
49947;BME280;35839;48.662;13.300;2022-12-07T08:16:47;97315.66;;;1.34;100.00
49947;BME280;35839;48.662;13.300;2022-12-07T08:19:13;97314.72;;;1.35;100.00
49947;BME280;35839;48.662;13.300;2022-12-07T08:21:38;97321.00;;;1.45;100.00
49947;BME280;35839;48.662;13.300;2022-12-07T08:24:04;97316.38;;;1.36;100.00
49947;BME280;35839;48.662;13.300;2022-12-07T08:26:29;97320.59;;;1.51;100.00
49947;BME280;35839;48.662;13.300;2022-12-07T08:28:54;97321.84;;;1.58;100.00
49947;BME280;35839;48.662;13.300;2022-12-07T08:31:20;97321.69;;;1.61;100.00
49947;BME280;35839;48.662;13.300;2022-12-07T08:33:46;97318.75;;;1.53;100.00
49947;BME280;35839;48.662;13.300;2022-12-07T08:36:12;97322.50;;;1.62;100.00
49947;BME280;35839;48.662;13.300;2022-12-07T08:38:39;97320.41;;;1.54;100.00
49947;BME280;35839;48.662;13.300;2022-12-07T08:41:06;97323.69;;;1.71;100.00
49947;BME280;35839;48.662;13.300;2022-12-07T08:43:31;97320.41;;;1.81;100.00
49947;BME280;35839;48.662;13.300;2022-12-07T08:48:36;97321.69;;;1.61;100.00
49947;BME280;35839;48.662;13.300;2022-12-07T08:51:03;97332.38;;;1.55;100.00
49947;BME280;35839;48.662;13.300;2022-12-07T08:53:29;97325.53;;;1.68;100.00
49947;BME280;35839;48.662;13.300;2022-12-07T08:55:55;97323.84;;;1.82;100.00
49947;BME280;35839;48.662;13.300;2022-12-07T08:58:21;97324.44;;;1.58;100.00
49947;BME280;35839;48.662;13.300;2022-12-07T09:00:47;97326.59;;;1.79;100.00
49947;BME280;35839;48.662;13.300;2022-12-07T09:03:12;97317.91;;;1.94;100.00
49947;BME280;35839;48.662;13.300;2022-12-07T09:05:37;97313.84;;;2.17;100.00
49947;BME280;35839;48.662;13.300;2022-12-07T09:08:03;97320.63;;;2.05;100.00
49947;BME280;35839;48.662;13.300;2022-12-07T09:10:29;97315.78;;;2.14;100.00
49947;BME280;35839;48.662;13.300;2022-12-07T09:12:54;97331.41;;;2.25;100.00
49947;BME280;35839;48.662;13.300;2022-12-07T09:15:20;97323.16;;;2.32;100.00
49947;BME280;35839;48.662;13.300;2022-12-07T09:17:45;97331.22;;;2.28;100.00
49947;BME280;35839;48.662;13.300;2022-12-07T09:20:11;97334.94;;;2.24;100.00
49947;BME280;35839;48.662;13.300;2022-12-07T09:22:36;97333.50;;;2.32;100.00
49947;BME280;35839;48.662;13.300;2022-12-07T09:25:03;97339.09;;;2.39;100.00
49947;BME280;35839;48.662;13.300;2022-12-07T09:27:30;97342.03;;;2.47;100.00
49947;BME280;35839;48.662;13.300;2022-12-07T09:29:55;97334.31;;;2.33;100.00
49947;BME280;35839;48.662;13.300;2022-12-07T09:32:21;97330.66;;;2.10;100.00
49947;BME280;35839;48.662;13.300;2022-12-07T09:34:47;97338.41;;;2.10;100.00
49947;BME280;35839;48.662;13.300;2022-12-07T09:37:12;97331.81;;;2.19;100.00
49947;BME280;35839;48.662;13.300;2022-12-07T09:39:38;97322.31;;;2.19;100.00
49947;BME280;35839;48.662;13.300;2022-12-07T09:42:04;97326.63;;;2.19;100.00
49947;BME280;35839;48.662;13.300;2022-12-07T09:44:31;97333.28;;;2.23;100.00
49947;BME280;35839;48.662;13.300;2022-12-07T09:46:56;97327.50;;;2.32;100.00
49947;BME280;35839;48.662;13.300;2022-12-07T09:49:24;97330.75;;;2.08;100.00
49947;BME280;35839;48.662;13.300;2022-12-07T09:54:35;97320.66;;;2.18;100.00
49947;BME280;35839;48.662;13.300;2022-12-07T09:57:02;97321.09;;;2.25;100.00
49947;BME280;35839;48.662;13.300;2022-12-07T09:59:28;97314.44;;;2.21;100.00
49947;BME280;35839;48.662;13.300;2022-12-07T10:01:55;97314.69;;;2.30;100.00
49947;BME280;35839;48.662;13.300;2022-12-07T10:04:26;97319.50;;;2.49;100.00
49947;BME280;35839;48.662;13.300;2022-12-07T10:06:52;97315.56;;;2.57;100.00
49947;BME280;35839;48.662;13.300;2022-12-07T10:09:20;97310.78;;;2.50;100.00
49947;BME280;35839;48.662;13.300;2022-12-07T10:14:28;97299.72;;;2.48;100.00
49947;BME280;35839;48.662;13.300;2022-12-07T10:16:54;97306.75;;;2.46;100.00
49947;BME280;35839;48.662;13.300;2022-12-07T10:19:28;97292.59;;;2.52;100.00
49947;BME280;35839;48.662;13.300;2022-12-07T10:22:15;97299.53;;;2.77;100.00
49947;BME280;35839;48.662;13.300;2022-12-07T10:24:42;97293.84;;;2.72;100.00
49947;BME280;35839;48.662;13.300;2022-12-07T10:27:30;97290.84;;;3.04;100.00
49947;BME280;35839;48.662;13.300;2022-12-07T10:29:57;97289.59;;;3.59;100.00
49947;BME280;35839;48.662;13.300;2022-12-07T10:32:34;97283.66;;;4.05;100.00
49947;BME280;35839;48.662;13.300;2022-12-07T10:35:26;97282.03;;;4.04;100.00
49947;BME280;35839;48.662;13.300;2022-12-07T10:37:53;97279.06;;;3.73;100.00
49947;BME280;35839;48.662;13.300;2022-12-07T10:45:45;97280.34;;;4.27;100.00
49947;BME280;35839;48.662;13.300;2022-12-07T10:48:37;97282.59;;;3.96;100.00
49947;BME280;35839;48.662;13.300;2022-12-07T10:57:10;97276.34;;;3.01;100.00
49947;BME280;35839;48.662;13.300;2022-12-07T11:00:02;97270.50;;;3.36;100.00
49947;BME280;35839;48.662;13.300;2022-12-07T11:05:17;97259.44;;;3.21;100.00
49947;BME280;35839;48.662;13.300;2022-12-07T11:13:37;97251.91;;;3.42;100.00
49947;BME280;35839;48.662;13.300;2022-12-07T11:16:19;97254.88;;;3.25;100.00
49947;BME280;35839;48.662;13.300;2022-12-07T11:32:10;97253.38;;;3.46;100.00
49947;BME280;35839;48.662;13.300;2022-12-07T11:37:34;97257.78;;;3.20;100.00
49947;BME280;35839;48.662;13.300;2022-12-07T11:40:04;97256.59;;;2.74;100.00
49947;BME280;35839;48.662;13.300;2022-12-07T11:43:09;97252.91;;;2.53;100.00
49947;BME280;35839;48.662;13.300;2022-12-07T11:45:32;97251.25;;;2.65;100.00
49947;BME280;35839;48.662;13.300;2022-12-07T11:48:01;97251.63;;;2.84;100.00
49947;BME280;35839;48.662;13.300;2022-12-07T11:56:06;97243.41;;;3.29;100.00
49947;BME280;35839;48.662;13.300;2022-12-07T12:03:37;97229.59;;;3.28;100.00
49947;BME280;35839;48.662;13.300;2022-12-07T12:06:05;97220.28;;;3.38;100.00
49947;BME280;35839;48.662;13.300;2022-12-07T12:08:34;97226.28;;;3.26;100.00
49947;BME280;35839;48.662;13.300;2022-12-07T12:11:15;97216.25;;;3.34;100.00
49947;BME280;35839;48.662;13.300;2022-12-07T12:13:56;97223.25;;;3.08;100.00
49947;BME280;35839;48.662;13.300;2022-12-07T12:22:37;97207.69;;;3.21;100.00
49947;BME280;35839;48.662;13.300;2022-12-07T12:25:06;97212.59;;;3.13;100.00
49947;BME280;35839;48.662;13.300;2022-12-07T12:27:35;97206.44;;;3.27;100.00
49947;BME280;35839;48.662;13.300;2022-12-07T12:30:05;97205.81;;;3.23;100.00
49947;BME280;35839;48.662;13.300;2022-12-07T12:35:35;97209.44;;;3.33;100.00
49947;BME280;35839;48.662;13.300;2022-12-07T12:41:01;97204.84;;;3.37;100.00
49947;BME280;35839;48.662;13.300;2022-12-07T12:43:47;97211.31;;;3.43;100.00
49947;BME280;35839;48.662;13.300;2022-12-07T12:51:43;97212.66;;;3.24;100.00
49947;BME280;35839;48.662;13.300;2022-12-07T12:54:20;97208.78;;;3.06;100.00
49947;BME280;35839;48.662;13.300;2022-12-07T12:59:56;97202.09;;;3.27;100.00
49947;BME280;35839;48.662;13.300;2022-12-07T13:02:30;97197.50;;;3.31;100.00
49947;BME280;35839;48.662;13.300;2022-12-07T13:21:00;97179.16;;;3.10;100.00
49947;BME280;35839;48.662;13.300;2022-12-07T13:23:30;97181.78;;;2.97;100.00
49947;BME280;35839;48.662;13.300;2022-12-07T13:25:59;97186.66;;;2.89;100.00
49947;BME280;35839;48.662;13.300;2022-12-07T13:28:32;97181.81;;;2.84;100.00
49947;BME280;35839;48.662;13.300;2022-12-07T13:31:03;97180.75;;;3.00;100.00
49947;BME280;35839;48.662;13.300;2022-12-07T13:33:35;97175.63;;;2.87;100.00
49947;BME280;35839;48.662;13.300;2022-12-07T13:36:00;97184.47;;;2.95;100.00
49947;BME280;35839;48.662;13.300;2022-12-07T13:38:30;97181.41;;;3.14;100.00
49947;BME280;35839;48.662;13.300;2022-12-07T13:41:14;97179.38;;;3.07;100.00
49947;BME280;35839;48.662;13.300;2022-12-07T13:43:52;97179.72;;;3.26;100.00
49947;BME280;35839;48.662;13.300;2022-12-07T13:46:20;97183.34;;;3.24;100.00
49947;BME280;35839;48.662;13.300;2022-12-07T13:48:50;97179.94;;;3.23;100.00
49947;BME280;35839;48.662;13.300;2022-12-07T13:51:27;97182.44;;;3.25;100.00
49947;BME280;35839;48.662;13.300;2022-12-07T13:54:09;97175.91;;;3.19;100.00
49947;BME280;35839;48.662;13.300;2022-12-07T13:56:35;97181.00;;;3.21;100.00
49947;BME280;35839;48.662;13.300;2022-12-07T13:59:02;97180.75;;;3.24;100.00
49947;BME280;35839;48.662;13.300;2022-12-07T14:01:30;97177.09;;;3.15;100.00
49947;BME280;35839;48.662;13.300;2022-12-07T14:04:16;97174.59;;;3.13;100.00
49947;BME280;35839;48.662;13.300;2022-12-07T14:06:50;97173.78;;;3.13;100.00
49947;BME280;35839;48.662;13.300;2022-12-07T14:09:20;97173.78;;;3.13;100.00
49947;BME280;35839;48.662;13.300;2022-12-07T14:11:47;97165.25;;;3.24;100.00
49947;BME280;35839;48.662;13.300;2022-12-07T14:14:18;97173.53;;;3.29;100.00
49947;BME280;35839;48.662;13.300;2022-12-07T14:16:43;97172.56;;;3.06;100.00
49947;BME280;35839;48.662;13.300;2022-12-07T14:19:41;97167.16;;;3.09;100.00
49947;BME280;35839;48.662;13.300;2022-12-07T14:22:08;97171.47;;;3.21;100.00
49947;BME280;35839;48.662;13.300;2022-12-07T14:24:44;97169.25;;;3.04;100.00
49947;BME280;35839;48.662;13.300;2022-12-07T14:27:35;97164.28;;;3.01;100.00
49947;BME280;35839;48.662;13.300;2022-12-07T14:30:02;97171.72;;;3.05;100.00
49947;BME280;35839;48.662;13.300;2022-12-07T14:32:29;97161.03;;;2.86;100.00
49947;BME280;35839;48.662;13.300;2022-12-07T14:35:02;97162.22;;;3.06;100.00
49947;BME280;35839;48.662;13.300;2022-12-07T14:37:29;97147.88;;;2.89;100.00
49947;BME280;35839;48.662;13.300;2022-12-07T14:39:54;97145.25;;;3.02;100.00
49947;BME280;35839;48.662;13.300;2022-12-07T14:42:23;97144.38;;;2.90;100.00
49947;BME280;35839;48.662;13.300;2022-12-07T14:44:49;97146.31;;;2.86;100.00
49947;BME280;35839;48.662;13.300;2022-12-07T14:47:15;97140.44;;;2.84;100.00
49947;BME280;35839;48.662;13.300;2022-12-07T14:49:40;97141.78;;;2.90;100.00
49947;BME280;35839;48.662;13.300;2022-12-07T14:52:11;97142.59;;;2.90;100.00
49947;BME280;35839;48.662;13.300;2022-12-07T14:54:38;97147.19;;;2.74;100.00
49947;BME280;35839;48.662;13.300;2022-12-07T14:57:03;97148.81;;;2.88;100.00
49947;BME280;35839;48.662;13.300;2022-12-07T14:59:29;97148.50;;;2.80;100.00
49947;BME280;35839;48.662;13.300;2022-12-07T15:01:54;97147.59;;;2.68;100.00
49947;BME280;35839;48.662;13.300;2022-12-07T15:04:19;97154.03;;;2.62;100.00
49947;BME280;35839;48.662;13.300;2022-12-07T15:06:59;97145.41;;;2.87;100.00
49947;BME280;35839;48.662;13.300;2022-12-07T15:09:25;97143.84;;;2.35;100.00
49947;BME280;35839;48.662;13.300;2022-12-07T15:11:50;97145.91;;;2.30;100.00
49947;BME280;35839;48.662;13.300;2022-12-07T15:14:16;97147.97;;;2.38;100.00
49947;BME280;35839;48.662;13.300;2022-12-07T15:16:42;97150.84;;;2.33;100.00
49947;BME280;35839;48.662;13.300;2022-12-07T15:19:13;97143.41;;;2.28;100.00
49947;BME280;35839;48.662;13.300;2022-12-07T15:21:39;97143.31;;;2.43;100.00
49947;BME280;35839;48.662;13.300;2022-12-07T15:24:05;97141.06;;;2.25;100.00
49947;BME280;35839;48.662;13.300;2022-12-07T15:26:30;97143.09;;;2.33;100.00
49947;BME280;35839;48.662;13.300;2022-12-07T15:28:56;97148.81;;;2.38;100.00
49947;BME280;35839;48.662;13.300;2022-12-07T15:31:21;97149.53;;;2.27;100.00
49947;BME280;35839;48.662;13.300;2022-12-07T15:33:47;97135.91;;;2.38;100.00
49947;BME280;35839;48.662;13.300;2022-12-07T15:36:21;97145.38;;;2.50;100.00
49947;BME280;35839;48.662;13.300;2022-12-07T15:38:47;97144.97;;;2.57;100.00
49947;BME280;35839;48.662;13.300;2022-12-07T15:41:12;97136.50;;;2.55;100.00
49947;BME280;35839;48.662;13.300;2022-12-07T15:43:38;97135.03;;;2.50;100.00
49947;BME280;35839;48.662;13.300;2022-12-07T15:46:21;97139.16;;;2.53;100.00
49947;BME280;35839;48.662;13.300;2022-12-07T15:48:47;97126.47;;;2.50;100.00
49947;BME280;35839;48.662;13.300;2022-12-07T15:51:12;97131.72;;;2.48;100.00
49947;BME280;35839;48.662;13.300;2022-12-07T15:53:38;97138.75;;;2.46;100.00
49947;BME280;35839;48.662;13.300;2022-12-07T15:56:07;97134.94;;;2.39;100.00
49947;BME280;35839;48.662;13.300;2022-12-07T15:58:32;97127.69;;;2.44;100.00
49947;BME280;35839;48.662;13.300;2022-12-07T16:00:58;97134.09;;;2.51;100.00
49947;BME280;35839;48.662;13.300;2022-12-07T16:03:23;97133.19;;;2.52;100.00
49947;BME280;35839;48.662;13.300;2022-12-07T16:05:49;97140.13;;;2.52;100.00
49947;BME280;35839;48.662;13.300;2022-12-07T16:08:15;97134.31;;;2.48;100.00
49947;BME280;35839;48.662;13.300;2022-12-07T16:10:40;97141.16;;;2.49;100.00
49947;BME280;35839;48.662;13.300;2022-12-07T16:13:11;97136.50;;;2.42;100.00
49947;BME280;35839;48.662;13.300;2022-12-07T16:15:40;97142.47;;;2.42;100.00
49947;BME280;35839;48.662;13.300;2022-12-07T16:18:06;97142.59;;;2.41;100.00
49947;BME280;35839;48.662;13.300;2022-12-07T16:20:31;97138.03;;;2.44;100.00
49947;BME280;35839;48.662;13.300;2022-12-07T16:22:57;97134.44;;;2.34;100.00
49947;BME280;35839;48.662;13.300;2022-12-07T16:25:22;97134.66;;;2.31;100.00
49947;BME280;35839;48.662;13.300;2022-12-07T16:27:48;97138.47;;;2.38;100.00
49947;BME280;35839;48.662;13.300;2022-12-07T16:30:14;97137.13;;;2.32;100.00
49947;BME280;35839;48.662;13.300;2022-12-07T16:32:41;97138.06;;;2.31;100.00
49947;BME280;35839;48.662;13.300;2022-12-07T16:35:06;97139.19;;;2.40;100.00
49947;BME280;35839;48.662;13.300;2022-12-07T16:37:32;97141.16;;;2.49;100.00
49947;BME280;35839;48.662;13.300;2022-12-07T16:39:57;97145.38;;;2.50;100.00
49947;BME280;35839;48.662;13.300;2022-12-07T16:42:22;97138.03;;;2.44;100.00
49947;BME280;35839;48.662;13.300;2022-12-07T16:44:48;97137.44;;;2.41;100.00
49947;BME280;35839;48.662;13.300;2022-12-07T16:47:13;97137.53;;;2.39;100.00
49947;BME280;35839;48.662;13.300;2022-12-07T16:49:38;97139.19;;;2.40;100.00
49947;BME280;35839;48.662;13.300;2022-12-07T16:52:04;97132.38;;;2.39;100.00
49947;BME280;35839;48.662;13.300;2022-12-07T16:54:29;97137.31;;;2.42;100.00
49947;BME280;35839;48.662;13.300;2022-12-07T16:56:58;97127.28;;;2.50;100.00
49947;BME280;35839;48.662;13.300;2022-12-07T16:59:23;97135.25;;;2.47;100.00
49947;BME280;35839;48.662;13.300;2022-12-07T17:01:48;97140.44;;;2.47;100.00
49947;BME280;35839;48.662;13.300;2022-12-07T17:04:13;97134.03;;;2.40;100.00
49947;BME280;35839;48.662;13.300;2022-12-07T17:06:39;97137.53;;;2.39;100.00
49947;BME280;35839;48.662;13.300;2022-12-07T17:09:04;97142.88;;;2.62;100.00
49947;BME280;35839;48.662;13.300;2022-12-07T17:11:34;97143.19;;;2.57;100.00
49947;BME280;35839;48.662;13.300;2022-12-07T17:13:59;97136.69;;;2.51;100.00
49947;BME280;35839;48.662;13.300;2022-12-07T17:16:44;97131.81;;;2.60;100.00
49947;BME280;35839;48.662;13.300;2022-12-07T17:19:12;97137.84;;;2.47;100.00
49947;BME280;35839;48.662;13.300;2022-12-07T17:21:38;97134.03;;;2.40;100.00
49947;BME280;35839;48.662;13.300;2022-12-07T17:24:06;97129.38;;;2.45;100.00
49947;BME280;35839;48.662;13.300;2022-12-07T17:26:32;97135.25;;;2.47;100.00
49947;BME280;35839;48.662;13.300;2022-12-07T17:28:59;97133.41;;;2.49;100.00
49947;BME280;35839;48.662;13.300;2022-12-07T17:31:24;97121.38;;;2.61;100.00
49947;BME280;35839;48.662;13.300;2022-12-07T17:33:50;97131.09;;;2.58;100.00
49947;BME280;35839;48.662;13.300;2022-12-07T17:36:21;97126.06;;;2.43;100.00
49947;BME280;35839;48.662;13.300;2022-12-07T17:38:47;97126.00;;;2.69;100.00
49947;BME280;35839;48.662;13.300;2022-12-07T17:41:15;97120.03;;;2.56;100.00
49947;BME280;35839;48.662;13.300;2022-12-07T17:44:01;97126.56;;;2.48;100.00
49947;BME280;35839;48.662;13.300;2022-12-07T17:46:27;97127.59;;;2.46;100.00
49947;BME280;35839;48.662;13.300;2022-12-07T17:48:56;97127.19;;;2.39;100.00
49947;BME280;35839;48.662;13.300;2022-12-07T17:51:21;97122.25;;;2.36;100.00
49947;BME280;35839;48.662;13.300;2022-12-07T17:54:05;97124.31;;;2.31;100.00
49947;BME280;35839;48.662;13.300;2022-12-07T17:56:31;97120.81;;;2.32;100.00
49947;BME280;35839;48.662;13.300;2022-12-07T17:58:57;97121.03;;;2.29;100.00
49947;BME280;35839;48.662;13.300;2022-12-07T18:01:22;97121.16;;;2.51;100.00
49947;BME280;35839;48.662;13.300;2022-12-07T18:03:47;97120.78;;;2.45;100.00
49947;BME280;35839;48.662;13.300;2022-12-07T18:06:13;97120.91;;;2.30;100.00
49947;BME280;35839;48.662;13.300;2022-12-07T18:08:38;97125.44;;;2.40;100.00
49947;BME280;35839;48.662;13.300;2022-12-07T18:11:05;97117.50;;;2.43;100.00
49947;BME280;35839;48.662;13.300;2022-12-07T18:13:32;97130.16;;;2.59;100.00
49947;BME280;35839;48.662;13.300;2022-12-07T18:16:01;97120.75;;;2.58;100.00
49947;BME280;35839;48.662;13.300;2022-12-07T18:18:27;97125.44;;;2.52;100.00
49947;BME280;35839;48.662;13.300;2022-12-07T18:20:52;97119.25;;;2.29;100.00
49947;BME280;35839;48.662;13.300;2022-12-07T18:23:18;97119.34;;;2.28;100.00
49947;BME280;35839;48.662;13.300;2022-12-07T18:25:51;97125.34;;;2.41;100.00
49947;BME280;35839;48.662;13.300;2022-12-07T18:28:17;97125.13;;;2.19;100.00
49947;BME280;35839;48.662;13.300;2022-12-07T18:30:43;97124.50;;;2.28;100.00
49947;BME280;35839;48.662;13.300;2022-12-07T18:33:18;97129.06;;;2.37;100.00
49947;BME280;35839;48.662;13.300;2022-12-07T18:35:44;97128.34;;;2.35;100.00
49947;BME280;35839;48.662;13.300;2022-12-07T18:38:10;97125.97;;;2.32;100.00
49947;BME280;35839;48.662;13.300;2022-12-07T18:40:37;97122.97;;;2.25;100.00
49947;BME280;35839;48.662;13.300;2022-12-07T18:43:03;97126.69;;;2.21;100.00
49947;BME280;35839;48.662;13.300;2022-12-07T18:45:29;97117.91;;;2.37;100.00
49947;BME280;35839;48.662;13.300;2022-12-07T18:47:54;97120.38;;;2.25;100.00
49947;BME280;35839;48.662;13.300;2022-12-07T18:50:19;97124.13;;;2.08;100.00
49947;BME280;35839;48.662;13.300;2022-12-07T18:52:45;97113.69;;;2.23;100.00
49947;BME280;35839;48.662;13.300;2022-12-07T18:55:10;97119.78;;;2.22;100.00
49947;BME280;35839;48.662;13.300;2022-12-07T18:57:35;97113.38;;;2.15;100.00
49947;BME280;35839;48.662;13.300;2022-12-07T19:00:02;97118.63;;;2.26;100.00
49947;BME280;35839;48.662;13.300;2022-12-07T19:02:28;97117.28;;;2.20;100.00
49947;BME280;35839;48.662;13.300;2022-12-07T19:04:53;97119.06;;;2.20;100.00
49947;BME280;35839;48.662;13.300;2022-12-07T19:07:18;97117.81;;;2.13;100.00
49947;BME280;35839;48.662;13.300;2022-12-07T19:09:43;97123.19;;;2.22;100.00
49947;BME280;35839;48.662;13.300;2022-12-07T19:12:12;97119.56;;;2.12;100.00
49947;BME280;35839;48.662;13.300;2022-12-07T19:14:38;97134.06;;;2.15;100.00
49947;BME280;35839;48.662;13.300;2022-12-07T19:17:07;97111.72;;;2.14;100.00
49947;BME280;35839;48.662;13.300;2022-12-07T19:19:39;97124.72;;;2.25;100.00
49947;BME280;35839;48.662;13.300;2022-12-07T19:22:07;97120.81;;;2.19;100.00
49947;BME280;35839;48.662;13.300;2022-12-07T19:24:33;97124.09;;;2.21;100.00
49947;BME280;35839;48.662;13.300;2022-12-07T19:26:58;97119.56;;;2.25;100.00
49947;BME280;35839;48.662;13.300;2022-12-07T19:29:24;97123.59;;;2.16;100.00
49947;BME280;35839;48.662;13.300;2022-12-07T19:31:52;97118.13;;;2.21;100.00
49947;BME280;35839;48.662;13.300;2022-12-07T19:34:17;97118.56;;;2.15;100.00
49947;BME280;35839;48.662;13.300;2022-12-07T19:36:44;97119.38;;;2.15;100.00
49947;BME280;35839;48.662;13.300;2022-12-07T19:39:10;97120.00;;;2.06;100.00
49947;BME280;35839;48.662;13.300;2022-12-07T19:41:35;97114.41;;;2.12;100.00
49947;BME280;35839;48.662;13.300;2022-12-07T19:44:06;97117.38;;;2.19;100.00
49947;BME280;35839;48.662;13.300;2022-12-07T19:46:32;97112.13;;;2.07;100.00
49947;BME280;35839;48.662;13.300;2022-12-07T19:48:58;97110.16;;;2.11;100.00
49947;BME280;35839;48.662;13.300;2022-12-07T19:51:25;97113.16;;;2.18;100.00
49947;BME280;35839;48.662;13.300;2022-12-07T19:53:50;97107.50;;;2.13;100.00
49947;BME280;35839;48.662;13.300;2022-12-07T19:56:17;97111.84;;;1.99;100.00
49947;BME280;35839;48.662;13.300;2022-12-07T19:58:43;97098.69;;;2.02;100.00
49947;BME280;35839;48.662;13.300;2022-12-07T20:01:08;97107.38;;;2.01;100.00
49947;BME280;35839;48.662;13.300;2022-12-07T20:03:34;97103.69;;;2.05;100.00
49947;BME280;35839;48.662;13.300;2022-12-07T20:05:59;97105.22;;;1.95;100.00
49947;BME280;35839;48.662;13.300;2022-12-07T20:08:25;97096.25;;;2.01;100.00
49947;BME280;35839;48.662;13.300;2022-12-07T20:10:50;97097.47;;;1.95;100.00
49947;BME280;35839;48.662;13.300;2022-12-07T20:13:17;97103.66;;;1.93;100.00
49947;BME280;35839;48.662;13.300;2022-12-07T20:16:02;97099.31;;;1.93;100.00
49947;BME280;35839;48.662;13.300;2022-12-07T20:18:28;97091.38;;;1.71;100.00
49947;BME280;35839;48.662;13.300;2022-12-07T20:20:57;97096.63;;;1.69;100.00
49947;BME280;35839;48.662;13.300;2022-12-07T20:23:31;97095.59;;;1.72;100.00
49947;BME280;35839;48.662;13.300;2022-12-07T20:26:00;97096.00;;;1.65;100.00
49947;BME280;35839;48.662;13.300;2022-12-07T20:28:26;97099.13;;;1.71;100.00
49947;BME280;35839;48.662;13.300;2022-12-07T20:30:52;97090.34;;;1.86;100.00